Time,TemperatureF,DewpointF,PressureIn,WindDirection,WindDirectionDegrees,WindSpeedMPH,WindSpeedGustMPH,Humidity,HourlyPrecipIn,Conditions,Clouds,dailyrainin,SoftwareType,DateUTC
2013-07-27 00:33:00,64.0,56.0,29.90,North,0,0.0,-999.0,75,0.00,,,-99.99,,2013-07-27 07:33:00,
2013-07-27 00:43:00,64.0,56.0,29.90,North,0,0.0,-999.0,75,0.00,,,-99.99,,2013-07-27 07:43:00,
2013-07-27 00:52:00,64.0,56.0,29.90,North,0,0.0,-999.0,75,0.00,,,-99.99,,2013-07-27 07:52:00,
2013-07-27 01:32:00,64.0,56.0,29.89,North,0,0.0,-999.0,76,0.00,,,-99.99,,2013-07-27 08:32:00,
2013-07-27 01:43:00,64.0,56.0,29.89,North,0,0.0,-999.0,76,0.00,,,-99.99,,2013-07-27 08:43:00,
2013-07-27 01:53:00,64.0,56.0,29.89,North,0,0.0,-999.0,76,0.00,,,-99.99,,2013-07-27 08:53:00,
2013-07-27 02:44:00,65.0,57.0,29.88,North,0,0.0,-999.0,76,0.00,,,-99.99,,2013-07-27 09:44:00,
2013-07-27 02:52:00,65.0,57.0,29.88,North,0,0.0,-999.0,76,0.00,,,-99.99,,2013-07-27 09:52:00,
2013-07-27 03:32:00,65.0,58.0,29.86,North,0,0.0,-999.0,77,0.00,,,-99.99,,2013-07-27 10:32:00,
2013-07-27 03:43:00,65.0,58.0,29.86,North,0,0.0,-999.0,77,0.00,,,-99.99,,2013-07-27 10:43:00,
2013-07-27 03:52:00,65.0,58.0,29.86,North,0,0.0,-999.0,77,0.00,,,-99.99,,2013-07-27 10:52:00,
2013-07-27 04:32:00,65.0,58.0,29.86,North,0,0.0,-999.0,77,0.00,,,-99.99,,2013-07-27 11:32:00,
2013-07-27 04:43:00,65.0,58.0,29.86,North,0,0.0,-999.0,77,0.00,,,-99.99,,2013-07-27 11:43:00,
2013-07-27 04:52:00,65.0,58.0,29.86,North,0,0.0,-999.0,77,0.00,,,-99.99,,2013-07-27 11:52:00,
2013-07-27 05:33:00,63.0,56.0,29.86,North,0,0.0,-999.0,78,0.00,,,-99.99,,2013-07-27 12:33:00,
2013-07-27 05:43:00,63.0,56.0,29.86,North,0,0.0,-999.0,78,0.00,,,-99.99,,2013-07-27 12:43:00,
2013-07-27 05:52:00,63.0,56.0,29.86,North,0,0.0,-999.0,78,0.00,,,-99.99,,2013-07-27 12:52:00,
2013-07-27 06:44:00,61.0,53.0,29.87,North,0,0.0,-999.0,76,0.00,,,-99.99,,2013-07-27 13:44:00,
2013-07-27 06:53:00,61.0,53.0,29.87,North,0,0.0,-999.0,76,0.00,,,-99.99,,2013-07-27 13:53:00,
2013-07-27 06:54:00,64.0,56.0,29.87,North,0,0.0,-999.0,74,0.00,,,-99.99,,2013-07-27 13:54:00,
2013-07-27 07:44:00,64.0,56.0,29.87,North,0,0.0,-999.0,74,0.00,,,-99.99,,2013-07-27 14:44:00,
2013-07-27 08:33:00,69.0,61.0,29.88,North,0,0.0,-999.0,75,0.00,,,-99.99,,2013-07-27 15:33:00,
2013-07-27 08:44:00,69.0,61.0,29.88,North,0,0.0,-999.0,75,0.00,,,-99.99,,2013-07-27 15:44:00,
2013-07-27 08:53:00,69.0,61.0,29.88,North,0,0.0,-999.0,75,0.00,,,-99.99,,2013-07-27 15:53:00,
2013-07-27 09:43:00,73.0,57.0,29.88,North,0,0.0,-999.0,58,0.00,,,-99.99,,2013-07-27 16:43:00,
2013-07-27 09:53:00,73.0,57.0,29.88,North,0,0.0,-999.0,58,0.00,,,-99.99,,2013-07-27 16:53:00,
2013-07-27 10:32:00,76.0,57.0,29.87,North,0,0.0,-999.0,51,0.00,,,-99.99,,2013-07-27 17:32:00,
2013-07-27 10:43:00,76.0,57.0,29.87,North,0,0.0,-999.0,51,0.00,,,-99.99,,2013-07-27 17:43:00,
2013-07-27 10:53:00,76.0,57.0,29.87,North,0,0.0,-999.0,51,0.00,,,-99.99,,2013-07-27 17:53:00,
2013-07-27 11:42:00,81.0,55.0,29.87,SE,140,4.0,-999.0,41,0.00,,,-99.99,,2013-07-27 18:42:00,
2013-07-27 11:52:00,81.0,55.0,29.87,SE,140,4.0,-999.0,41,0.00,,,-99.99,,2013-07-27 18:52:00,
2013-07-27 12:32:00,81.0,54.0,29.85,South,170,2.0,-999.0,40,0.00,,,-99.99,,2013-07-27 19:32:00,
2013-07-27 12:43:00,81.0,54.0,29.85,South,170,2.0,-999.0,40,0.00,,,-99.99,,2013-07-27 19:43:00,
2013-07-27 12:52:00,81.0,54.0,29.85,South,170,2.0,-999.0,40,0.00,,,-99.99,,2013-07-27 19:52:00,
2013-07-27 13:32:00,81.0,54.0,29.84,East,80,1.0,-999.0,40,0.00,,,-99.99,,2013-07-27 20:32:00,
2013-07-27 13:42:00,81.0,54.0,29.84,East,80,1.0,-999.0,40,0.00,,,-99.99,,2013-07-27 20:42:00,
2013-07-27 13:52:00,81.0,54.0,29.84,East,80,1.0,-999.0,40,0.00,,,-99.99,,2013-07-27 20:52:00,
2013-07-27 14:33:00,81.0,52.0,29.83,ESE,110,8.0,-999.0,37,0.00,,,-99.99,,2013-07-27 21:33:00,
2013-07-27 14:42:00,81.0,52.0,29.83,ESE,110,8.0,-999.0,37,0.00,,,-99.99,,2013-07-27 21:42:00,
2013-07-27 14:52:00,81.0,52.0,29.83,ESE,110,8.0,-999.0,37,0.00,,,-99.99,,2013-07-27 21:52:00,
2013-07-27 15:32:00,81.0,55.0,29.81,South,170,3.0,-999.0,41,0.00,,,-99.99,,2013-07-27 22:32:00,
2013-07-27 15:43:00,81.0,55.0,29.81,South,170,3.0,-999.0,41,0.00,,,-99.99,,2013-07-27 22:43:00,
2013-07-27 15:53:00,81.0,55.0,29.81,South,170,3.0,-999.0,41,0.00,,,-99.99,,2013-07-27 22:53:00,
2013-07-27 16:32:00,81.0,53.0,29.79,ENE,70,1.0,-999.0,38,0.00,,,-99.99,,2013-07-27 23:32:00,
2013-07-27 16:44:00,81.0,53.0,29.79,ENE,70,1.0,-999.0,38,0.00,,,-99.99,,2013-07-27 23:44:00,
2013-07-27 16:52:00,81.0,53.0,29.79,ENE,70,1.0,-999.0,38,0.00,,,-99.99,,2013-07-27 23:52:00,
2013-07-27 17:32:00,78.0,54.0,29.78,North,0,0.0,-999.0,44,0.00,,,-99.99,,2013-07-28 00:32:00,
2013-07-27 17:44:00,78.0,54.0,29.78,North,0,0.0,-999.0,44,0.00,,,-99.99,,2013-07-28 00:44:00,
2013-07-27 18:32:00,75.0,56.0,29.76,North,0,0.0,-999.0,51,0.00,,,-99.99,,2013-07-28 01:32:00,
2013-07-27 18:43:00,75.0,56.0,29.76,North,0,0.0,-999.0,51,0.00,,,-99.99,,2013-07-28 01:43:00,
2013-07-27 18:53:00,75.0,56.0,29.76,North,0,0.0,-999.0,51,0.00,,,-99.99,,2013-07-28 01:53:00,
2013-07-27 19:32:00,72.0,55.0,29.76,North,0,0.0,-999.0,55,0.00,,,-99.99,,2013-07-28 02:32:00,
2013-07-27 19:42:00,72.0,55.0,29.76,North,0,0.0,-999.0,55,0.00,,,-99.99,,2013-07-28 02:42:00,
2013-07-27 19:53:00,72.0,55.0,29.76,North,0,0.0,-999.0,55,0.00,,,-99.99,,2013-07-28 02:53:00,
2013-07-27 20:32:00,70.0,52.0,29.76,North,0,0.0,-999.0,52,0.00,,,-99.99,,2013-07-28 03:32:00,
2013-07-27 20:42:00,70.0,52.0,29.76,North,0,0.0,-999.0,52,0.00,,,-99.99,,2013-07-28 03:42:00,
2013-07-27 20:52:00,70.0,52.0,29.76,North,0,0.0,-999.0,52,0.00,,,-99.99,,2013-07-28 03:52:00,
2013-07-27 21:43:00,69.0,50.0,29.77,South,170,1.0,-999.0,51,0.00,,,-99.99,,2013-07-28 04:43:00,
2013-07-27 21:53:00,69.0,50.0,29.77,South,170,1.0,-999.0,51,0.00,,,-99.99,,2013-07-28 04:53:00,
2013-07-27 22:43:00,69.0,50.0,29.79,North,0,0.0,-999.0,50,0.00,,,-99.99,,2013-07-28 05:43:00,
2013-07-27 22:52:00,69.0,50.0,29.79,North,0,0.0,-999.0,50,0.00,,,-99.99,,2013-07-28 05:52:00,
2013-07-27 23:32:00,68.0,49.0,29.78,North,0,0.0,-999.0,51,0.00,,,-99.99,,2013-07-28 06:32:00,
2013-07-27 23:42:00,68.0,49.0,29.78,North,0,0.0,-999.0,51,0.00,,,-99.99,,2013-07-28 06:42:00,
2013-07-27 23:52:00,68.0,49.0,29.78,North,0,0.0,-999.0,51,0.00,,,-99.99,,2013-07-28 06:52:00,